Time;durP1;ratioP1;P1;durP2;ratioP2;P2;SDS_P1;SDS_P2;PMS_P1;PMS_P2;Temp;Humidity;BMP_temperature;BMP_pressure;BME280_temperature;BME280_humidity;BME280_pressure;Samples;Min_cycle;Max_cycle;Signal;HPM_P1;HPM_P2
2021/12/13 00:00:57;;;;;;;23.69;13.65;;;;;;;;;;332618;159;857850;-57
2021/12/13 00:02:01;;;;;;;29.28;14.86;;;;;;;;;;341159;155;857571;-56
2021/12/13 00:03:04;;;;;;;26.86;14.52;;;;;;;;;;337168;156;857382;-56
2021/12/13 00:04:14;;;;;;;30.29;15.70;;;;;;;;;;340942;154;865016;-56
2021/12/13 00:05:17;;;;;;;24.97;14.15;;;;;;;;;;337513;156;859516;-56
2021/12/13 00:06:21;;;;;;;29.65;15.94;;;;;;;;;;340666;156;857800;-56
2021/12/13 00:07:24;;;;;;;26.36;15.41;;;;;;;;;;340696;155;858931;-56
2021/12/13 00:08:30;;;;;;;27.97;14.91;;;;;;;;;;340844;155;857210;-56
2021/12/13 00:09:33;;;;;;;28.76;15.52;;;;;;;;;;340112;156;866634;-58
2021/12/13 00:10:37;;;;;;;26.21;14.21;;;;;;;;;;340571;155;857223;-56
2021/12/13 00:11:39;;;;;;;27.99;15.28;;;;;;;;;;340137;155;857284;-56
2021/12/13 00:12:42;;;;;;;17.53;9.62;;;;;;;;;;337503;157;857248;-56
2021/12/13 00:13:46;;;;;;;28.07;15.47;;;;;;;;;;330852;159;857781;-56
2021/12/13 00:14:51;;;;;;;29.52;15.96;;;;;;;;;;329391;161;859038;-56
2021/12/13 00:15:54;;;;;;;31.08;15.96;;;;;;;;;;332732;157;857316;-56
2021/12/13 00:16:58;;;;;;;28.30;15.91;;;;;;;;;;333063;157;857219;-57
2021/12/13 00:18:01;;;;;;;28.24;16.00;;;;;;;;;;336492;156;857350;-57
2021/12/13 00:19:04;;;;;;;28.91;15.64;;;;;;;;;;337614;157;857321;-56
2021/12/13 00:20:14;;;;;;;29.37;15.73;;;;;;;;;;335589;157;857257;-57
2021/12/13 00:21:22;;;;;;;23.62;12.99;;;;;;;;;;336776;156;857061;-56
2021/12/13 00:22:28;;;;;;;29.25;15.12;;;;;;;;;;336651;156;857214;-56
2021/12/13 00:23:32;;;;;;;29.64;16.49;;;;;;;;;;336040;158;857185;-56
2021/12/13 00:24:35;;;;;;;28.58;16.20;;;;;;;;;;336318;156;857218;-56
2021/12/13 00:25:38;;;;;;;26.64;14.38;;;;;;;;;;336874;159;858751;-58
2021/12/13 00:26:41;;;;;;;31.23;15.44;;;;;;;;;;336912;158;859214;-57
2021/12/13 00:27:45;;;;;;;27.13;15.06;;;;;;;;;;336950;156;858955;-56
2021/12/13 00:28:47;;;;;;;28.74;15.18;;;;;;;;;;330201;159;859193;-58
2021/12/13 00:29:54;;;;;;;27.35;14.77;;;;;;;;;;329467;159;865294;-58
2021/12/13 00:31:03;;;;;;;26.68;16.11;;;;;;;;;;337222;157;858678;-58
2021/12/13 00:32:10;;;;;;;31.68;16.10;;;;;;;;;;336571;156;858454;-56
2021/12/13 00:33:15;;;;;;;29.69;15.48;;;;;;;;;;335859;158;859606;-56
2021/12/13 00:34:22;;;;;;;27.26;12.63;;;;;;;;;;336772;156;856621;-56
2021/12/13 00:35:25;;;;;;;33.42;16.45;;;;;;;;;;336751;156;858060;-56
2021/12/13 00:36:32;;;;;;;30.51;15.83;;;;;;;;;;337083;156;857134;-56
2021/12/13 00:37:34;;;;;;;28.53;16.48;;;;;;;;;;336828;159;860065;-56
2021/12/13 00:38:41;;;;;;;27.18;15.41;;;;;;;;;;337018;156;859001;-56
2021/12/13 00:39:45;;;;;;;28.93;15.69;;;;;;;;;;336204;159;865059;-56
2021/12/13 00:40:48;;;;;;;27.34;15.29;;;;;;;;;;336279;157;858650;-56
2021/12/13 00:41:50;;;;;;;25.74;14.94;;;;;;;;;;330561;159;860149;-58
2021/12/13 00:42:56;;;;;;;26.39;15.34;;;;;;;;;;342354;155;858843;-56
2021/12/13 00:44:05;;;;;;;21.59;11.89;;;;;;;;;;340897;156;865545;-56
2021/12/13 00:45:08;;;;;;;35.93;16.87;;;;;;;;;;336284;156;858563;-56
2021/12/13 00:46:11;;;;;;;31.55;15.45;;;;;;;;;;330075;160;857892;-56
2021/12/13 00:47:14;;;;;;;31.01;15.71;;;;;;;;;;330066;159;857687;-56
2021/12/13 00:48:15;;;;;;;28.94;15.26;;;;;;;;;;329951;159;858889;-56
2021/12/13 00:49:18;;;;;;;30.53;15.83;;;;;;;;;;325270;162;859275;-58
2021/12/13 00:50:21;;;;;;;29.07;15.47;;;;;;;;;;330302;160;857177;-56
2021/12/13 00:51:28;;;;;;;26.91;16.04;;;;;;;;;;335720;157;857233;-58
2021/12/13 00:52:30;;;;;;;30.44;16.02;;;;;;;;;;330045;159;864824;-56
2021/12/13 00:53:37;;;;;;;28.03;15.97;;;;;;;;;;330001;160;859125;-56
2021/12/13 00:54:38;;;;;;;29.40;15.67;;;;;;;;;;335521;157;858849;-56
2021/12/13 00:55:40;;;;;;;30.39;15.85;;;;;;;;;;335943;157;858349;-56
2021/12/13 00:56:44;;;;;;;26.31;14.93;;;;;;;;;;340620;155;857323;-56
2021/12/13 00:57:47;;;;;;;31.24;16.44;;;;;;;;;;339798;155;865068;-56
2021/12/13 00:58:49;;;;;;;30.83;16.94;;;;;;;;;;340094;155;864930;-57
2021/12/13 00:59:58;;;;;;;27.07;16.01;;;;;;;;;;340765;155;856311;-56
2021/12/13 01:01:05;;;;;;;31.77;17.14;;;;;;;;;;340796;156;857787;-56
2021/12/13 01:02:09;;;;;;;27.29;15.20;;;;;;;;;;337471;157;857257;-57
2021/12/13 01:03:12;;;;;;;30.37;15.81;;;;;;;;;;331168;159;858717;-56
2021/12/13 01:04:14;;;;;;;27.16;15.88;;;;;;;;;;339970;156;863459;-56
2021/12/13 01:05:26;;;;;;;28.72;15.36;;;;;;;;;;342527;154;857378;-56
2021/12/13 01:06:47;;;;;;;26.47;15.03;;;;;;;;;;336404;156;857259;-57
2021/12/13 01:07:59;;;;;;;25.06;14.96;;;;;;;;;;338362;156;859902;-57
2021/12/13 01:09:18;;;;;;;25.17;14.90;;;;;;;;;;336767;157;864853;-56
2021/12/13 01:10:41;;;;;;;23.96;12.79;;;;;;;;;;336935;156;857358;-57
2021/12/13 01:11:50;;;;;;;25.76;14.84;;;;;;;;;;335652;156;857900;-56
2021/12/13 01:12:52;;;;;;;26.08;15.41;;;;;;;;;;329311;159;857614;-57
2021/12/13 01:13:55;;;;;;;27.51;15.14;;;;;;;;;;341893;154;860630;-57
2021/12/13 01:15:03;;;;;;;23.06;12.82;;;;;;;;;;340427;156;866803;-55
2021/12/13 01:16:18;;;;;;;20.29;13.06;;;;;;;;;;340604;155;859489;-56
2021/12/13 01:17:27;;;;;;;27.11;14.95;;;;;;;;;;340114;155;857349;-57
2021/12/13 01:18:32;;;;;;;23.54;14.16;;;;;;;;;;340781;155;857238;-56
2021/12/13 01:19:49;;;;;;;29.09;15.27;;;;;;;;;;339419;156;857436;-55
2021/12/13 01:20:58;;;;;;;25.87;14.57;;;;;;;;;;338260;154;857695;-57
2021/12/13 01:22:00;;;;;;;29.53;16.52;;;;;;;;;;338134;154;858823;-57
2021/12/13 01:23:05;;;;;;;29.11;15.36;;;;;;;;;;339969;155;858061;-56
2021/12/13 01:24:09;;;;;;;30.45;16.74;;;;;;;;;;336250;156;857718;-56
2021/12/13 01:25:25;;;;;;;29.05;16.46;;;;;;;;;;329361;160;859880;-56
2021/12/13 01:26:34;;;;;;;29.77;16.70;;;;;;;;;;329069;161;857716;-56
2021/12/13 01:27:35;;;;;;;37.00;17.09;;;;;;;;;;330368;159;859877;-56
2021/12/13 01:28:39;;;;;;;28.71;15.62;;;;;;;;;;330789;159;858250;-57
2021/12/13 01:29:40;;;;;;;32.41;16.41;;;;;;;;;;331641;159;859609;-56
2021/12/13 01:30:43;;;;;;;28.91;16.88;;;;;;;;;;340731;155;857964;-57
2021/12/13 01:31:53;;;;;;;30.89;16.21;;;;;;;;;;340453;155;864965;-56
2021/12/13 01:32:55;;;;;;;31.56;16.56;;;;;;;;;;339828;155;858301;-56
2021/12/13 01:33:57;;;;;;;29.92;17.45;;;;;;;;;;341084;155;857846;-56
2021/12/13 01:34:58;;;;;;;29.83;15.48;;;;;;;;;;341554;155;859079;-56
2021/12/13 01:36:01;;;;;;;26.24;13.55;;;;;;;;;;341390;154;858118;-56
2021/12/13 01:37:13;;;;;;;28.54;16.66;;;;;;;;;;340281;156;864111;-56
2021/12/13 01:38:13;;;;;;;33.38;16.46;;;;;;;;;;340335;155;859326;-56
2021/12/13 01:39:16;;;;;;;36.93;18.46;;;;;;;;;;340937;156;858197;-56
2021/12/13 01:40:20;;;;;;;32.04;17.46;;;;;;;;;;340537;156;858965;-56
2021/12/13 01:41:30;;;;;;;30.62;16.54;;;;;;;;;;340543;155;859605;-56
2021/12/13 01:42:32;;;;;;;36.17;17.38;;;;;;;;;;341227;156;857555;-56
2021/12/13 01:43:35;;;;;;;38.51;18.15;;;;;;;;;;341366;155;859700;-56
2021/12/13 01:44:37;;;;;;;31.07;17.29;;;;;;;;;;355347;139;866425;-57
2021/12/13 01:45:40;;;;;;;30.89;17.05;;;;;;;;;;356216;150;857790;-56
2021/12/13 01:46:44;;;;;;;36.68;18.93;;;;;;;;;;356591;147;865038;-57
2021/12/13 01:47:46;;;;;;;34.27;18.57;;;;;;;;;;354756;147;858928;-57
2021/12/13 01:48:47;;;;;;;41.14;18.97;;;;;;;;;;357244;147;857180;-57
2021/12/13 01:49:52;;;;;;;36.17;18.29;;;;;;;;;;357138;147;865665;-57
2021/12/13 01:51:04;;;;;;;32.81;17.41;;;;;;;;;;356048;150;858679;-57
2021/12/13 01:51:58;;;;;;;32.26;16.85;;;;;;;;;;354286;147;864948;-57
2021/12/13 01:53:00;;;;;;;34.90;18.79;;;;;;;;;;356634;149;858806;-56
2021/12/13 01:54:14;;;;;;;37.03;18.16;;;;;;;;;;364184;144;857107;-56
2021/12/13 01:55:17;;;;;;;38.51;18.68;;;;;;;;;;363692;145;865900;-56
2021/12/13 01:57:51;;;;;;;30.53;17.18;;;;;;;;;;358326;149;865293;-57
2021/12/13 01:58:51;;;;;;;34.72;19.92;;;;;;;;;;359355;146;857620;-56
2021/12/13 02:00:08;;;;;;;35.07;18.16;;;;;;;;;;358231;146;857650;-56
2021/12/13 02:01:12;;;;;;;33.92;17.72;;;;;;;;;;358518;146;857639;-56
2021/12/13 02:02:15;;;;;;;34.59;18.14;;;;;;;;;;355739;147;857777;-57
2021/12/13 02:03:17;;;;;;;36.44;18.09;;;;;;;;;;352872;149;859417;-57
2021/12/13 02:04:19;;;;;;;33.71;17.51;;;;;;;;;;356001;149;858633;-57
2021/12/13 02:05:22;;;;;;;36.27;17.28;;;;;;;;;;354116;149;864511;-56
2021/12/13 02:06:29;;;;;;;34.18;17.64;;;;;;;;;;354835;149;864885;-56
2021/12/13 02:07:35;;;;;;;33.93;18.27;;;;;;;;;;354207;149;858767;-56
2021/12/13 02:08:37;;;;;;;34.26;18.31;;;;;;;;;;354301;149;857214;-55
2021/12/13 02:09:43;;;;;;;32.66;16.29;;;;;;;;;;354182;149;857588;-58
2021/12/13 02:10:46;;;;;;;35.88;17.63;;;;;;;;;;353554;149;864946;-56
2021/12/13 02:11:50;;;;;;;37.51;19.89;;;;;;;;;;353117;149;857633;-56
2021/12/13 02:12:57;;;;;;;39.04;19.53;;;;;;;;;;353797;149;857334;-56
2021/12/13 02:14:07;;;;;;;39.15;19.51;;;;;;;;;;353214;149;857881;-57
2021/12/13 02:17:47;;;;;;;33.63;18.13;;;;;;;;;;354718;149;858201;-57
2021/12/13 02:18:50;;;;;;;38.08;18.15;;;;;;;;;;353818;149;858495;-57
2021/12/13 02:19:53;;;;;;;37.25;18.39;;;;;;;;;;353063;149;858799;-57
2021/12/13 02:21:05;;;;;;;38.75;18.96;;;;;;;;;;355180;149;859909;-56
2021/12/13 02:22:08;;;;;;;37.20;19.79;;;;;;;;;;352611;150;858468;-56
2021/12/13 02:23:10;;;;;;;35.47;17.89;;;;;;;;;;352816;149;860397;-56
2021/12/13 02:24:11;;;;;;;36.65;19.15;;;;;;;;;;354009;150;859149;-56
2021/12/13 02:25:15;;;;;;;34.16;19.10;;;;;;;;;;352955;149;856695;-56
2021/12/13 02:26:18;;;;;;;36.73;18.94;;;;;;;;;;352670;149;865829;-56
2021/12/13 02:27:21;;;;;;;38.48;19.29;;;;;;;;;;354765;149;857027;-56
2021/12/13 02:28:24;;;;;;;37.01;17.97;;;;;;;;;;355064;149;864668;-56
2021/12/13 02:29:34;;;;;;;39.83;20.37;;;;;;;;;;357563;149;859959;-56
2021/12/13 02:30:35;;;;;;;36.06;19.56;;;;;;;;;;352837;149;859753;-59
2021/12/13 02:31:37;;;;;;;35.49;18.66;;;;;;;;;;354622;149;859857;-56
2021/12/13 02:32:40;;;;;;;37.06;18.54;;;;;;;;;;353445;149;858992;-59
2021/12/13 02:33:43;;;;;;;38.39;19.73;;;;;;;;;;355519;149;858726;-56
2021/12/13 02:34:44;;;;;;;35.61;18.46;;;;;;;;;;353228;149;859069;-56
2021/12/13 02:35:48;;;;;;;40.74;19.89;;;;;;;;;;354905;149;857157;-57
2021/12/13 02:36:51;;;;;;;39.15;19.19;;;;;;;;;;353069;149;857804;-56
2021/12/13 02:37:52;;;;;;;42.89;21.57;;;;;;;;;;354178;149;856327;-56
2021/12/13 02:38:55;;;;;;;45.31;21.15;;;;;;;;;;354691;149;866050;-58
2021/12/13 02:39:58;;;;;;;39.91;20.65;;;;;;;;;;353844;149;864815;-54
2021/12/13 02:41:00;;;;;;;41.24;20.22;;;;;;;;;;354085;149;857140;-56
2021/12/13 02:42:03;;;;;;;38.72;19.96;;;;;;;;;;355140;147;859038;-56
2021/12/13 02:43:05;;;;;;;37.81;18.61;;;;;;;;;;355237;149;864572;-56
2021/12/13 02:44:09;;;;;;;40.21;20.23;;;;;;;;;;354348;148;865689;-57
2021/12/13 02:45:27;;;;;;;40.65;19.11;;;;;;;;;;349809;149;858674;-56
2021/12/13 02:46:29;;;;;;;28.41;14.28;;;;;;;;;;350758;151;864811;-57
2021/12/13 02:47:32;;;;;;;37.86;18.90;;;;;;;;;;349816;151;857688;-56
2021/12/13 02:48:45;;;;;;;38.34;20.19;;;;;;;;;;349492;151;864924;-56
2021/12/13 02:49:47;;;;;;;38.04;19.23;;;;;;;;;;350044;151;858876;-56
2021/12/13 02:50:50;;;;;;;45.64;20.45;;;;;;;;;;349136;151;857609;-56
2021/12/13 02:51:54;;;;;;;42.44;19.37;;;;;;;;;;349744;151;865713;-56
2021/12/13 02:52:55;;;;;;;46.88;21.06;;;;;;;;;;348464;151;857239;-56
2021/12/13 02:53:59;;;;;;;38.09;18.73;;;;;;;;;;349256;151;857696;-56
2021/12/13 02:55:02;;;;;;;43.76;21.62;;;;;;;;;;349312;151;859122;-56
2021/12/13 02:56:03;;;;;;;39.72;19.12;;;;;;;;;;349214;151;858123;-56
2021/12/13 02:57:11;;;;;;;44.73;20.71;;;;;;;;;;349152;151;857534;-56
2021/12/13 02:58:14;;;;;;;42.64;20.76;;;;;;;;;;350181;151;866622;-56
2021/12/13 02:59:16;;;;;;;33.54;16.71;;;;;;;;;;349069;151;857745;-56
2021/12/13 03:00:23;;;;;;;30.97;13.10;;;;;;;;;;349824;151;857528;-55
2021/12/13 03:01:26;;;;;;;49.70;20.76;;;;;;;;;;349281;151;858798;-55
2021/12/13 03:02:33;;;;;;;41.96;20.59;;;;;;;;;;348777;151;857185;-56
2021/12/13 03:03:35;;;;;;;45.24;21.40;;;;;;;;;;345665;153;857186;-56
2021/12/13 03:04:37;;;;;;;44.75;22.13;;;;;;;;;;349414;153;857277;-57
2021/12/13 03:05:39;;;;;;;48.59;20.57;;;;;;;;;;348415;151;866509;-56
2021/12/13 03:06:43;;;;;;;40.67;21.87;;;;;;;;;;350611;151;865797;-57
2021/12/13 03:07:46;;;;;;;45.39;20.52;;;;;;;;;;349028;151;867081;-57
2021/12/13 03:08:49;;;;;;;43.81;20.92;;;;;;;;;;348778;151;857208;-57
2021/12/13 03:09:52;;;;;;;42.62;21.92;;;;;;;;;;349739;151;858872;-56
2021/12/13 03:10:56;;;;;;;44.26;20.81;;;;;;;;;;351115;151;857737;-56
2021/12/13 03:11:57;;;;;;;42.60;20.90;;;;;;;;;;349747;152;857189;-57
2021/12/13 03:12:59;;;;;;;46.76;20.90;;;;;;;;;;348527;152;857857;-57
2021/12/13 03:14:02;;;;;;;50.21;22.38;;;;;;;;;;350098;151;865096;-56
2021/12/13 03:15:06;;;;;;;44.41;21.46;;;;;;;;;;347782;151;858989;-56
2021/12/13 03:16:13;;;;;;;47.64;21.80;;;;;;;;;;350011;151;857711;-57
2021/12/13 03:17:16;;;;;;;42.01;18.17;;;;;;;;;;349213;151;865238;-56
2021/12/13 03:18:19;;;;;;;46.74;21.68;;;;;;;;;;349339;151;857298;-56
2021/12/13 03:19:32;;;;;;;46.54;21.99;;;;;;;;;;348106;151;857247;-56
2021/12/13 03:20:52;;;;;;;46.29;21.89;;;;;;;;;;350552;151;857192;-56
2021/12/13 03:21:56;;;;;;;47.31;21.59;;;;;;;;;;350009;151;858867;-56
2021/12/13 03:23:02;;;;;;;44.08;21.61;;;;;;;;;;347478;151;859789;-56
2021/12/13 03:24:22;;;;;;;44.03;21.50;;;;;;;;;;345934;151;857080;-58
2021/12/13 03:25:35;;;;;;;52.44;21.37;;;;;;;;;;350736;151;858118;-57
2021/12/13 03:26:45;;;;;;;42.27;21.33;;;;;;;;;;348794;151;857202;-57
2021/12/13 03:27:48;;;;;;;41.98;19.73;;;;;;;;;;348311;151;857687;-57
2021/12/13 03:28:55;;;;;;;49.41;20.27;;;;;;;;;;349411;151;857674;-57
2021/12/13 03:29:58;;;;;;;50.95;22.97;;;;;;;;;;347481;152;864855;-55
2021/12/13 03:31:08;;;;;;;47.58;22.16;;;;;;;;;;350617;151;858945;-56
2021/12/13 03:32:11;;;;;;;51.25;24.01;;;;;;;;;;349645;151;857188;-56
2021/12/13 03:33:13;;;;;;;49.17;20.84;;;;;;;;;;348552;151;858778;-58
2021/12/13 03:34:16;;;;;;;43.09;21.57;;;;;;;;;;349050;151;857402;-58
2021/12/13 03:35:23;;;;;;;42.26;20.42;;;;;;;;;;348118;153;859085;-58
2021/12/13 03:36:26;;;;;;;49.66;21.34;;;;;;;;;;349728;151;865680;-58
2021/12/13 03:37:28;;;;;;;56.09;24.91;;;;;;;;;;348321;151;858000;-57
2021/12/13 03:38:31;;;;;;;47.13;21.71;;;;;;;;;;349269;151;858106;-58
2021/12/13 03:39:39;;;;;;;51.04;23.94;;;;;;;;;;348234;151;865060;-58
2021/12/13 03:40:40;;;;;;;49.68;22.11;;;;;;;;;;347045;151;859816;-56
2021/12/13 03:41:43;;;;;;;50.82;23.49;;;;;;;;;;348430;151;859395;-56
2021/12/13 03:42:46;;;;;;;48.14;21.97;;;;;;;;;;351055;151;864933;-56
2021/12/13 03:43:53;;;;;;;52.09;23.20;;;;;;;;;;348447;151;857932;-56
2021/12/13 03:44:55;;;;;;;56.55;23.79;;;;;;;;;;349128;153;857286;-56
2021/12/13 03:45:57;;;;;;;49.05;23.89;;;;;;;;;;350903;150;858781;-56
2021/12/13 03:47:03;;;;;;;53.81;25.19;;;;;;;;;;350367;150;864957;-56
2021/12/13 03:48:06;;;;;;;47.38;25.27;;;;;;;;;;352182;150;857865;-56
2021/12/13 03:49:07;;;;;;;50.43;24.24;;;;;;;;;;350849;150;857215;-58
2021/12/13 03:50:17;;;;;;;52.59;23.65;;;;;;;;;;353353;150;866669;-57
2021/12/13 03:51:20;;;;;;;53.46;23.87;;;;;;;;;;351769;150;856671;-56
2021/12/13 03:52:24;;;;;;;50.33;23.99;;;;;;;;;;351169;150;859626;-56
2021/12/13 03:53:26;;;;;;;61.46;25.55;;;;;;;;;;352636;150;865509;-56
2021/12/13 03:54:27;;;;;;;49.65;22.36;;;;;;;;;;352871;150;858177;-55
2021/12/13 03:55:30;;;;;;;49.18;23.43;;;;;;;;;;354124;150;858871;-56
2021/12/13 03:56:33;;;;;;;57.51;24.51;;;;;;;;;;352357;150;857217;-56
2021/12/13 03:57:37;;;;;;;52.57;23.96;;;;;;;;;;354415;150;859107;-56
2021/12/13 03:58:40;;;;;;;45.80;21.57;;;;;;;;;;353279;150;857226;-59
2021/12/13 03:59:43;;;;;;;53.51;23.79;;;;;;;;;;352619;150;857581;-56
2021/12/13 04:00:56;;;;;;;50.57;24.13;;;;;;;;;;354422;150;857900;-56
2021/12/13 04:01:59;;;;;;;57.96;24.76;;;;;;;;;;352417;150;857273;-56
2021/12/13 04:03:01;;;;;;;51.04;23.44;;;;;;;;;;351639;150;859059;-56
2021/12/13 04:04:04;;;;;;;50.55;23.89;;;;;;;;;;354020;150;857242;-56
2021/12/13 04:05:07;;;;;;;51.16;24.78;;;;;;;;;;352824;150;857831;-56
2021/12/13 04:06:09;;;;;;;56.73;25.58;;;;;;;;;;353280;150;859091;-56
2021/12/13 04:07:12;;;;;;;53.24;24.31;;;;;;;;;;346752;152;858680;-56
2021/12/13 04:08:16;;;;;;;50.99;24.73;;;;;;;;;;347113;152;865472;-56
2021/12/13 04:09:18;;;;;;;47.45;23.45;;;;;;;;;;351532;150;856541;-56
2021/12/13 04:10:22;;;;;;;49.87;24.09;;;;;;;;;;353086;150;857393;-56
2021/12/13 04:11:24;;;;;;;54.19;25.49;;;;;;;;;;354780;150;866285;-56
2021/12/13 04:12:32;;;;;;;50.39;24.05;;;;;;;;;;352731;150;857185;-56
2021/12/13 04:13:33;;;;;;;48.87;24.63;;;;;;;;;;352168;150;857688;-56
2021/12/13 04:14:37;;;;;;;57.81;25.80;;;;;;;;;;353448;150;857306;-56
2021/12/13 04:16:07;;;;;;;56.61;26.59;;;;;;;;;;353884;150;857324;-56
2021/12/13 04:17:21;;;;;;;55.42;24.84;;;;;;;;;;352350;150;860085;-57
2021/12/13 04:18:30;;;;;;;55.36;24.48;;;;;;;;;;351828;150;857142;-57
2021/12/13 04:19:33;;;;;;;50.83;24.85;;;;;;;;;;352082;150;864885;-56
2021/12/13 04:20:35;;;;;;;51.26;23.38;;;;;;;;;;352245;150;857235;-55
2021/12/13 04:21:42;;;;;;;57.06;25.11;;;;;;;;;;354082;150;863365;-55
2021/12/13 04:22:45;;;;;;;55.46;25.22;;;;;;;;;;352457;150;857170;-56
2021/12/13 04:23:50;;;;;;;50.43;24.23;;;;;;;;;;351079;150;859243;-57
2021/12/13 04:24:53;;;;;;;53.39;25.77;;;;;;;;;;351760;150;859071;-57
2021/12/13 04:25:56;;;;;;;57.44;24.17;;;;;;;;;;351581;150;859611;-56
2021/12/13 04:26:59;;;;;;;52.73;24.09;;;;;;;;;;346469;152;857147;-57
2021/12/13 04:28:09;;;;;;;54.06;24.19;;;;;;;;;;346201;152;864987;-57
2021/12/13 04:29:12;;;;;;;53.16;24.72;;;;;;;;;;351869;150;857907;-58
2021/12/13 04:30:19;;;;;;;51.69;22.99;;;;;;;;;;351746;150;859096;-58
2021/12/13 04:31:22;;;;;;;50.17;25.51;;;;;;;;;;351625;150;857102;-58
2021/12/13 04:32:26;;;;;;;53.00;26.34;;;;;;;;;;353284;150;857284;-56
2021/12/13 04:33:32;;;;;;;58.28;25.61;;;;;;;;;;350919;151;857161;-56
2021/12/13 04:34:38;;;;;;;51.69;23.92;;;;;;;;;;353582;150;857297;-57
2021/12/13 04:35:37;;;;;;;48.92;24.31;;;;;;;;;;346039;152;859123;-56
2021/12/13 04:36:40;;;;;;;51.08;23.87;;;;;;;;;;345990;152;857344;-56
2021/12/13 04:37:44;;;;;;;50.34;25.43;;;;;;;;;;351773;151;866884;-56
2021/12/13 04:38:51;;;;;;;57.13;25.03;;;;;;;;;;354276;150;857265;-58
2021/12/13 04:39:55;;;;;;;55.67;25.16;;;;;;;;;;351940;150;857070;-58
2021/12/13 04:40:56;;;;;;;58.39;25.79;;;;;;;;;;351910;150;857364;-58
2021/12/13 04:42:02;;;;;;;54.41;23.56;;;;;;;;;;354829;150;864976;-58
2021/12/13 04:43:06;;;;;;;52.52;23.34;;;;;;;;;;354921;150;865723;-57
2021/12/13 04:44:09;;;;;;;53.54;24.66;;;;;;;;;;354140;150;858486;-59
2021/12/13 04:45:16;;;;;;;57.51;25.04;;;;;;;;;;353505;150;859544;-58
2021/12/13 04:46:18;;;;;;;64.24;26.39;;;;;;;;;;353288;149;856311;-57
2021/12/13 04:47:22;;;;;;;51.10;25.65;;;;;;;;;;352760;149;856565;-58
2021/12/13 04:48:25;;;;;;;60.19;27.64;;;;;;;;;;353255;149;858577;-58
2021/12/13 04:49:26;;;;;;;51.59;23.88;;;;;;;;;;355472;149;857222;-59
2021/12/13 04:50:29;;;;;;;54.97;27.59;;;;;;;;;;354691;149;865705;-58
2021/12/13 04:51:36;;;;;;;57.57;28.41;;;;;;;;;;355148;149;857214;-58
2021/12/13 04:52:37;;;;;;;54.74;23.57;;;;;;;;;;351831;149;865154;-58
2021/12/13 04:53:40;;;;;;;52.27;26.37;;;;;;;;;;359102;147;856665;-58
2021/12/13 04:54:43;;;;;;;60.28;25.26;;;;;;;;;;349709;149;856080;-59
2021/12/13 04:55:44;;;;;;;50.79;23.98;;;;;;;;;;359906;147;858165;-58
2021/12/13 04:56:46;;;;;;;61.24;26.81;;;;;;;;;;352499;150;864990;-58
2021/12/13 04:57:48;;;;;;;57.65;26.93;;;;;;;;;;358642;147;864838;-57
2021/12/13 04:58:50;;;;;;;58.15;25.71;;;;;;;;;;357530;148;857307;-57
2021/12/13 04:59:54;;;;;;;58.09;25.99;;;;;;;;;;352760;150;857791;-56
2021/12/13 05:00:56;;;;;;;48.86;23.01;;;;;;;;;;351830;150;856224;-58
2021/12/13 05:01:59;;;;;;;54.59;23.90;;;;;;;;;;359014;147;859472;-57
2021/12/13 05:03:01;;;;;;;56.40;26.71;;;;;;;;;;359135;147;857971;-56
2021/12/13 05:04:04;;;;;;;59.95;26.13;;;;;;;;;;359041;147;857703;-60
2021/12/13 05:05:05;;;;;;;54.82;26.79;;;;;;;;;;354640;149;864591;-58
2021/12/13 05:06:09;;;;;;;54.99;24.83;;;;;;;;;;353308;150;859586;-57
2021/12/13 05:07:11;;;;;;;61.92;27.25;;;;;;;;;;350915;149;857348;-56
2021/12/13 05:08:14;;;;;;;55.38;25.13;;;;;;;;;;352511;149;858348;-57
2021/12/13 05:09:17;;;;;;;62.31;28.77;;;;;;;;;;354462;149;863760;-57
2021/12/13 05:10:19;;;;;;;55.97;26.41;;;;;;;;;;351527;149;865845;-59
2021/12/13 05:11:21;;;;;;;58.59;26.37;;;;;;;;;;353665;149;860311;-57
2021/12/13 05:12:25;;;;;;;61.04;28.75;;;;;;;;;;353620;149;865066;-59
2021/12/13 05:13:28;;;;;;;63.27;28.36;;;;;;;;;;355239;149;857765;-59
2021/12/13 05:14:38;;;;;;;67.64;29.52;;;;;;;;;;354935;149;859105;-58
2021/12/13 05:15:41;;;;;;;62.13;27.36;;;;;;;;;;352760;150;857229;-58
2021/12/13 05:16:50;;;;;;;55.58;25.51;;;;;;;;;;351933;149;859099;-59
2021/12/13 05:17:52;;;;;;;59.41;27.05;;;;;;;;;;353337;149;857130;-60
2021/12/13 05:18:54;;;;;;;58.43;26.21;;;;;;;;;;360308;146;859691;-56
2021/12/13 05:20:07;;;;;;;63.24;26.96;;;;;;;;;;361362;147;864696;-57
2021/12/13 05:21:10;;;;;;;61.74;27.31;;;;;;;;;;358775;147;857299;-57
2021/12/13 05:22:11;;;;;;;66.23;26.09;;;;;;;;;;354016;147;857829;-56
2021/12/13 05:23:14;;;;;;;57.58;25.41;;;;;;;;;;354599;148;864152;-58
2021/12/13 05:24:17;;;;;;;52.38;24.43;;;;;;;;;;353829;149;864202;-60
2021/12/13 05:25:19;;;;;;;59.22;26.53;;;;;;;;;;353580;149;859073;-60
2021/12/13 05:26:32;;;;;;;59.98;27.71;;;;;;;;;;351212;150;866064;-62
2021/12/13 05:27:35;;;;;;;58.07;27.19;;;;;;;;;;353447;148;857223;-62
2021/12/13 05:28:38;;;;;;;68.28;28.12;;;;;;;;;;355453;148;857870;-60
2021/12/13 05:29:42;;;;;;;66.41;28.64;;;;;;;;;;353952;149;857176;-57
2021/12/13 05:30:45;;;;;;;68.18;28.72;;;;;;;;;;354854;148;857695;-61
2021/12/13 05:31:54;;;;;;;63.46;27.82;;;;;;;;;;351272;148;865369;-56
2021/12/13 05:32:57;;;;;;;64.83;28.04;;;;;;;;;;352799;149;864992;-56
2021/12/13 05:34:00;;;;;;;66.88;27.54;;;;;;;;;;354209;149;857437;-56
2021/12/13 05:35:08;;;;;;;62.14;27.06;;;;;;;;;;352961;151;857712;-54
2021/12/13 05:36:12;;;;;;;69.69;29.11;;;;;;;;;;352460;148;860402;-55
2021/12/13 05:37:14;;;;;;;68.00;28.62;;;;;;;;;;352795;150;856455;-55
2021/12/13 05:38:26;;;;;;;60.10;27.68;;;;;;;;;;355462;149;856148;-56
2021/12/13 05:39:28;;;;;;;72.86;28.69;;;;;;;;;;355478;149;864995;-55
2021/12/13 05:40:37;;;;;;;69.99;28.71;;;;;;;;;;353023;148;856770;-56
2021/12/13 05:41:39;;;;;;;66.95;28.51;;;;;;;;;;352689;149;865211;-54
2021/12/13 05:42:43;;;;;;;70.74;28.29;;;;;;;;;;353916;149;857388;-54
2021/12/13 05:43:48;;;;;;;67.29;26.10;;;;;;;;;;353849;149;858808;-55
2021/12/13 05:44:50;;;;;;;59.64;25.63;;;;;;;;;;352807;149;858490;-55
2021/12/13 05:45:59;;;;;;;53.47;25.21;;;;;;;;;;353111;149;857229;-52
2021/12/13 05:47:03;;;;;;;63.02;26.61;;;;;;;;;;353767;150;864352;-57
2021/12/13 05:48:06;;;;;;;56.39;24.72;;;;;;;;;;352401;149;859619;-55
2021/12/13 05:49:09;;;;;;;64.74;26.31;;;;;;;;;;353169;149;857274;-55
2021/12/13 05:50:12;;;;;;;60.20;25.53;;;;;;;;;;355065;149;864485;-54
2021/12/13 05:51:19;;;;;;;59.35;25.82;;;;;;;;;;347552;153;856742;-53
2021/12/13 05:52:23;;;;;;;67.32;26.81;;;;;;;;;;344018;152;864831;-51
2021/12/13 05:53:26;;;;;;;61.47;25.24;;;;;;;;;;355754;148;858808;-54
2021/12/13 05:54:30;;;;;;;57.32;25.29;;;;;;;;;;354828;148;856490;-55
2021/12/13 05:55:31;;;;;;;70.03;26.48;;;;;;;;;;353034;148;857162;-55
2021/12/13 05:56:35;;;;;;;58.89;25.23;;;;;;;;;;347483;151;857376;-52
2021/12/13 05:57:38;;;;;;;63.14;26.77;;;;;;;;;;359551;144;864960;-55
2021/12/13 05:58:44;;;;;;;56.94;24.59;;;;;;;;;;365445;144;858798;-56
2021/12/13 05:59:54;;;;;;;59.09;25.07;;;;;;;;;;364792;144;857175;-56
2021/12/13 06:00:57;;;;;;;55.88;25.01;;;;;;;;;;366814;144;857290;-56
2021/12/13 06:02:08;;;;;;;56.28;23.38;;;;;;;;;;363320;144;857233;-56
2021/12/13 06:03:15;;;;;;;56.16;24.93;;;;;;;;;;365767;144;864507;-58
2021/12/13 06:04:16;;;;;;;53.73;22.31;;;;;;;;;;366270;144;858786;-55
2021/12/13 06:05:19;;;;;;;51.71;23.64;;;;;;;;;;364932;144;864664;-54
2021/12/13 06:06:25;;;;;;;64.67;24.94;;;;;;;;;;365927;144;857170;-55
2021/12/13 06:07:28;;;;;;;55.38;23.03;;;;;;;;;;365298;144;865578;-55
2021/12/13 06:08:34;;;;;;;52.85;23.85;;;;;;;;;;365176;144;858160;-55
2021/12/13 06:09:41;;;;;;;54.33;23.63;;;;;;;;;;365695;144;865956;-55
2021/12/13 06:10:48;;;;;;;54.04;22.71;;;;;;;;;;364776;144;857395;-56
2021/12/13 06:11:50;;;;;;;58.19;23.14;;;;;;;;;;367604;144;857224;-57
2021/12/13 06:12:54;;;;;;;56.85;23.18;;;;;;;;;;365816;144;857759;-56
2021/12/13 06:13:57;;;;;;;43.90;19.89;;;;;;;;;;365405;144;858892;-57
2021/12/13 06:15:03;;;;;;;52.09;21.39;;;;;;;;;;366090;144;857187;-56